createdAt,value
2023-04-09T00:00:33.585Z,8.38
2023-04-09T00:01:35.403Z,8.25
2023-04-09T00:02:37.235Z,8.18
2023-04-09T00:03:39.595Z,8.32
2023-04-09T00:04:41.575Z,8.57
2023-04-09T00:05:43.308Z,8.35
2023-04-09T00:06:45.074Z,9.05
2023-04-09T00:07:46.796Z,8.15
2023-04-09T00:08:48.525Z,7.67
2023-04-09T00:09:50.292Z,8.27
2023-04-09T00:10:53.382Z,8.30
2023-04-09T00:11:55.190Z,8.48
2023-04-09T00:12:56.946Z,8.23
2023-04-09T00:13:59.023Z,8.10
2023-04-09T00:15:00.778Z,8.35
2023-04-09T00:16:02.576Z,8.63
2023-04-09T00:17:04.324Z,8.85
2023-04-09T00:18:06.098Z,8.68
2023-04-09T00:19:07.857Z,7.93
2023-04-09T00:20:09.749Z,8.43
2023-04-09T00:21:11.554Z,7.95
2023-04-09T00:22:13.316Z,8.65
2023-04-09T00:23:15.014Z,8.50
2023-04-09T00:24:17.452Z,9.10
2023-04-09T00:25:19.239Z,9.27
2023-04-09T00:26:20.985Z,8.48
2023-04-09T00:27:22.967Z,8.80
2023-04-09T00:28:24.719Z,8.30
2023-04-09T00:29:26.498Z,9.37
2023-04-09T00:30:31.688Z,8.93
2023-04-09T00:31:33.461Z,8.98
2023-04-09T00:32:35.245Z,9.90
2023-04-09T00:33:36.980Z,9.73
2023-04-09T00:34:38.791Z,9.60
2023-04-09T00:35:40.546Z,9.38
2023-04-09T00:36:42.291Z,9.05
2023-04-09T00:37:44.311Z,9.27
2023-04-09T00:38:46.046Z,10.43
2023-04-09T00:39:47.789Z,9.13
2023-04-09T00:40:50.491Z,9.30
2023-04-09T00:42:00.257Z,8.90
2023-04-09T00:43:01.965Z,9.18
2023-04-09T00:44:03.728Z,9.82
2023-04-09T00:45:06.448Z,9.98
2023-04-09T00:46:08.185Z,9.38
2023-04-09T00:47:10.295Z,9.10
2023-04-09T00:48:13.875Z,9.68
2023-04-09T00:49:15.639Z,8.80
2023-04-09T00:50:17.417Z,9.70
2023-04-09T00:51:19.222Z,8.98
2023-04-09T00:52:21.441Z,8.93
2023-04-09T00:53:23.412Z,8.85
2023-04-09T00:54:25.216Z,8.55
2023-04-09T00:55:27.116Z,8.15
2023-04-09T00:56:30.397Z,8.80
2023-04-09T00:57:32.464Z,8.50
2023-04-09T00:58:34.180Z,8.57
2023-04-09T00:59:38.836Z,8.73
2023-04-09T01:00:40.897Z,8.23
2023-04-09T01:01:42.778Z,8.23
2023-04-09T01:02:44.902Z,8.30
2023-04-09T01:03:47.027Z,7.72
2023-04-09T01:04:51.133Z,8.02
2023-04-09T01:05:58.759Z,8.77
2023-04-09T01:07:12.586Z,7.95
2023-04-09T01:08:39.252Z,8.13
2023-04-09T01:09:51.721Z,8.20
2023-04-09T01:11:30.991Z,8.40
2023-04-09T01:12:36.832Z,7.33
2023-04-09T01:14:05.287Z,8.07
2023-04-09T01:15:13.856Z,8.27
2023-04-09T01:16:19.318Z,7.20
2023-04-09T01:17:53.007Z,7.25
2023-04-09T01:19:07.912Z,6.72
2023-04-09T01:20:14.813Z,7.25
2023-04-09T01:21:20.524Z,7.63
2023-04-09T01:22:50.025Z,7.78
2023-04-09T01:24:16.243Z,6.90
2023-04-09T01:26:00.947Z,7.00
2023-04-09T01:27:09.750Z,7.07
2023-04-09T01:28:33.073Z,7.93
2023-04-09T01:29:45.378Z,7.40
2023-04-09T01:30:53.822Z,8.13
2023-04-09T01:31:56.090Z,7.78
2023-04-09T01:32:58.932Z,8.10
2023-04-09T01:34:01.920Z,7.78
2023-04-09T01:35:06.301Z,7.18
2023-04-09T01:36:08.963Z,7.78
2023-04-09T01:37:12.455Z,8.50
2023-04-09T01:38:16.649Z,7.35
2023-04-09T01:39:18.947Z,7.72
2023-04-09T01:40:20.844Z,8.30
2023-04-09T01:41:24.944Z,9.07
2023-04-09T01:42:27.778Z,8.60
2023-04-09T01:43:32.128Z,8.52
2023-04-09T01:44:34.112Z,8.52
2023-04-09T01:45:35.968Z,8.65
2023-04-09T01:46:39.718Z,8.50
2023-04-09T01:47:42.234Z,8.50
2023-04-09T01:48:44.895Z,7.90
2023-04-09T01:49:46.974Z,8.40
2023-04-09T01:51:16.745Z,9.10
2023-04-09T01:52:18.558Z,8.07
2023-04-09T01:53:21.667Z,8.23
2023-04-09T01:54:23.458Z,8.98
2023-04-09T01:55:25.206Z,9.50
2023-04-09T01:56:26.934Z,8.63
2023-04-09T01:57:28.600Z,9.43
2023-04-09T01:58:30.292Z,10.53
2023-04-09T01:59:32.026Z,9.98
2023-04-09T02:00:40.457Z,10.48
2023-04-09T02:01:54.788Z,10.60
2023-04-09T02:03:19.646Z,10.10
2023-04-09T02:04:30.013Z,10.15
2023-04-09T02:05:38.598Z,10.60
2023-04-09T02:06:48.389Z,10.50
2023-04-09T02:07:56.190Z,10.90
2023-04-09T02:09:00.457Z,10.95
2023-04-09T02:10:03.152Z,10.70
2023-04-09T02:11:09.953Z,10.57
2023-04-09T02:12:14.435Z,10.63
2023-04-09T02:13:18.445Z,11.35
2023-04-09T02:14:20.878Z,12.05
2023-04-09T02:15:23.484Z,11.07
2023-04-09T02:16:26.915Z,11.32
2023-04-09T02:17:28.705Z,11.65
2023-04-09T02:18:30.946Z,11.60
2023-04-09T02:19:43.514Z,12.02
2023-04-09T02:20:45.201Z,11.83
2023-04-09T02:21:46.937Z,10.45
2023-04-09T02:22:48.722Z,12.45
2023-04-09T02:23:50.849Z,12.25
2023-04-09T02:24:52.633Z,11.77
2023-04-09T02:25:54.595Z,11.52
2023-04-09T02:26:56.277Z,13.77
2023-04-09T02:27:57.946Z,12.70
2023-04-09T02:28:59.600Z,11.80
2023-04-09T02:30:01.318Z,12.80
2023-04-09T02:31:03.080Z,12.33
2023-04-09T02:32:05.106Z,13.25
2023-04-09T02:33:07.162Z,12.60
2023-04-09T02:34:08.828Z,12.10
2023-04-09T02:35:10.512Z,12.15
2023-04-09T02:36:13.373Z,11.55
2023-04-09T02:37:15.126Z,13.00
2023-04-09T02:38:16.848Z,13.13
2023-04-09T02:39:18.555Z,12.80
2023-04-09T02:40:20.369Z,12.48
2023-04-09T02:41:22.026Z,12.13
2023-04-09T02:42:23.894Z,12.48
2023-04-09T02:43:25.596Z,12.45
2023-04-09T02:44:27.331Z,11.75
2023-04-09T02:45:29.067Z,12.75
2023-04-09T02:46:30.926Z,13.27
2023-04-09T02:47:32.604Z,13.45
2023-04-09T02:48:34.280Z,13.30
2023-04-09T02:49:35.991Z,12.80
2023-04-09T02:50:37.696Z,13.20
2023-04-09T02:51:39.342Z,13.67
2023-04-09T02:52:41.032Z,13.65
2023-04-09T02:53:42.691Z,13.07
2023-04-09T02:54:44.417Z,14.73
2023-04-09T02:55:46.113Z,13.32
2023-04-09T02:56:47.783Z,12.98
2023-04-09T02:57:49.449Z,13.30
2023-04-09T02:58:51.250Z,12.93
2023-04-09T02:59:53.058Z,12.32
2023-04-09T03:00:54.775Z,11.90
2023-04-09T03:01:56.519Z,11.13
2023-04-09T03:02:58.510Z,11.88
2023-04-09T03:04:01.174Z,10.90
2023-04-09T03:05:03.548Z,12.07
2023-04-09T03:06:05.300Z,11.52
2023-04-09T03:07:06.977Z,11.10
2023-04-09T03:08:08.701Z,11.60
2023-04-09T03:09:10.420Z,12.10
2023-04-09T03:10:12.121Z,11.30
2023-04-09T03:11:13.842Z,11.60
2023-04-09T03:12:15.568Z,11.87
2023-04-09T03:13:17.269Z,10.70
2023-04-09T03:14:19.030Z,11.80
2023-04-09T03:15:20.726Z,11.60
2023-04-09T03:16:25.071Z,11.10
2023-04-09T03:17:26.803Z,10.70
2023-04-09T03:18:28.502Z,11.35
2023-04-09T03:19:31.527Z,10.90
2023-04-09T03:20:33.305Z,10.60
2023-04-09T03:21:35.018Z,10.65
2023-04-09T03:22:37.822Z,10.67
2023-04-09T03:23:39.571Z,10.13
2023-04-09T03:24:41.301Z,10.82
2023-04-09T03:25:42.947Z,10.90
2023-04-09T03:26:44.597Z,10.13
2023-04-09T03:27:46.602Z,10.45
2023-04-09T03:28:48.476Z,10.35
2023-04-09T03:29:50.166Z,10.25
2023-04-09T03:30:51.846Z,9.75
2023-04-09T03:31:53.574Z,9.73
2023-04-09T03:32:55.287Z,10.07
2023-04-09T03:33:57.051Z,9.85
2023-04-09T03:34:58.751Z,9.45
2023-04-09T03:36:00.518Z,9.77
2023-04-09T03:37:02.248Z,9.35
2023-04-09T03:38:04.001Z,9.02
2023-04-09T03:39:05.613Z,10.23
2023-04-09T03:40:07.920Z,9.38
2023-04-09T03:41:09.579Z,8.98
2023-04-09T03:42:11.370Z,9.25
2023-04-09T03:43:13.125Z,10.13
2023-04-09T03:44:14.796Z,10.35
2023-04-09T03:45:16.525Z,9.77
2023-04-09T03:46:18.823Z,9.70
2023-04-09T03:47:20.633Z,9.30
2023-04-09T03:48:22.443Z,9.50
2023-04-09T03:49:24.163Z,9.38
2023-04-09T03:50:25.853Z,9.85
2023-04-09T03:51:27.567Z,9.57
2023-04-09T03:52:29.231Z,8.43
2023-04-09T03:53:31.067Z,8.80
2023-04-09T03:54:32.721Z,8.73
2023-04-09T03:55:34.412Z,8.60
2023-04-09T03:56:36.068Z,8.73
2023-04-09T03:57:37.749Z,8.77
2023-04-09T03:58:39.411Z,8.55
2023-04-09T03:59:41.108Z,9.38
2023-04-09T04:00:42.772Z,9.85
2023-04-09T04:01:44.491Z,9.35
2023-04-09T04:02:46.417Z,9.65
2023-04-09T04:03:48.360Z,8.97
2023-04-09T04:04:50.260Z,9.38
2023-04-09T04:05:52.054Z,8.68
2023-04-09T04:06:53.740Z,9.10
2023-04-09T04:07:55.423Z,10.18
2023-04-09T04:08:57.126Z,10.27
2023-04-09T04:09:58.774Z,10.38
2023-04-09T04:11:04.625Z,11.35
2023-04-09T04:12:06.343Z,10.63
2023-04-09T04:13:08.029Z,10.45
2023-04-09T04:14:09.769Z,9.83
2023-04-09T04:15:11.886Z,9.65
2023-04-09T04:16:13.648Z,10.80
2023-04-09T04:17:15.322Z,11.63
2023-04-09T04:18:17.014Z,11.82
2023-04-09T04:19:18.690Z,13.10
2023-04-09T04:20:20.508Z,11.65
2023-04-09T04:21:22.217Z,11.85
2023-04-09T04:22:26.093Z,12.15
2023-04-09T04:23:28.047Z,12.25
2023-04-09T04:24:29.774Z,11.77
2023-04-09T04:25:31.477Z,12.02
2023-04-09T04:26:33.217Z,11.57
2023-04-09T04:27:34.886Z,11.35
2023-04-09T04:28:39.846Z,10.63
2023-04-09T04:29:41.558Z,10.10
2023-04-09T04:30:43.249Z,10.18
2023-04-09T04:31:45.018Z,10.10
2023-04-09T04:32:46.814Z,10.48
2023-04-09T04:33:48.478Z,10.82
2023-04-09T04:34:50.664Z,9.97
2023-04-09T04:35:52.385Z,11.05
2023-04-09T04:36:54.101Z,10.88
2023-04-09T04:37:55.777Z,11.45
2023-04-09T04:38:57.416Z,10.35
2023-04-09T04:40:01.695Z,11.00
2023-04-09T04:41:03.735Z,9.85
2023-04-09T04:42:05.382Z,11.32
2023-04-09T04:43:07.008Z,9.63
2023-04-09T04:44:08.645Z,9.75
2023-04-09T04:45:10.465Z,10.03
2023-04-09T04:46:12.092Z,9.63
2023-04-09T04:47:13.853Z,10.55
2023-04-09T04:48:15.503Z,10.20
2023-04-09T04:49:17.162Z,10.40
2023-04-09T04:50:18.907Z,10.30
2023-04-09T04:51:20.568Z,9.55
2023-04-09T04:52:22.255Z,9.63
2023-04-09T04:53:24.296Z,11.02
2023-04-09T04:54:26.029Z,11.13
2023-04-09T04:55:27.762Z,11.80
2023-04-09T04:56:29.521Z,9.80
2023-04-09T04:57:31.222Z,9.98
2023-04-09T04:58:32.899Z,10.88
2023-04-09T04:59:37.878Z,9.57
2023-04-09T05:00:39.576Z,9.43
2023-04-09T05:01:41.363Z,10.27
2023-04-09T05:02:43.221Z,8.70
2023-04-09T05:03:45.020Z,10.55
2023-04-09T05:04:46.764Z,9.75
2023-04-09T05:05:48.442Z,9.77
2023-04-09T05:06:50.247Z,9.70
2023-04-09T05:07:51.897Z,9.95
2023-04-09T05:08:53.729Z,9.80
2023-04-09T05:09:55.591Z,9.30
2023-04-09T05:10:57.285Z,8.73
2023-04-09T05:11:58.993Z,9.13
2023-04-09T05:13:00.666Z,9.70
2023-04-09T05:14:02.294Z,9.73
2023-04-09T05:15:04.466Z,9.05
2023-04-09T05:16:06.501Z,9.50
2023-04-09T05:17:08.230Z,10.68
2023-04-09T05:18:09.919Z,9.63
2023-04-09T05:19:11.566Z,9.73
2023-04-09T05:20:13.270Z,9.18
2023-04-09T05:21:14.955Z,9.90
2023-04-09T05:22:16.715Z,8.20
2023-04-09T05:23:18.391Z,8.98
2023-04-09T05:24:20.263Z,9.40
2023-04-09T05:25:21.947Z,9.65
2023-04-09T05:26:23.857Z,9.63
2023-04-09T05:27:25.581Z,9.00
2023-04-09T05:28:27.277Z,8.75
2023-04-09T05:29:28.986Z,8.75
2023-04-09T05:30:30.697Z,8.63
2023-04-09T05:31:32.350Z,9.10
2023-04-09T05:32:34.092Z,9.00
2023-04-09T05:33:35.784Z,8.23
2023-04-09T05:34:37.473Z,8.75
2023-04-09T05:35:39.519Z,9.63
2023-04-09T05:36:41.247Z,9.87
2023-04-09T05:37:42.905Z,8.65
2023-04-09T05:38:46.899Z,8.88
2023-04-09T05:39:48.577Z,7.53
2023-04-09T05:40:50.328Z,8.68
2023-04-09T05:41:52.054Z,9.05
2023-04-09T05:42:53.711Z,9.52
2023-04-09T05:43:55.386Z,9.98
2023-04-09T05:44:57.042Z,11.13
2023-04-09T05:45:58.990Z,10.82
2023-04-09T05:47:00.874Z,11.23
2023-04-09T05:48:02.829Z,9.93
2023-04-09T05:49:04.578Z,8.90
2023-04-09T05:50:06.620Z,8.38
2023-04-09T05:51:08.368Z,8.43
2023-04-09T05:52:10.035Z,7.57
2023-04-09T05:53:11.941Z,10.00
2023-04-09T05:54:13.699Z,11.95
2023-04-09T05:55:15.359Z,9.75
2023-04-09T05:56:16.992Z,10.20
2023-04-09T05:57:18.623Z,8.73
2023-04-09T05:58:21.109Z,8.60
2023-04-09T05:59:22.878Z,9.15
2023-04-09T06:00:24.649Z,8.90
2023-04-09T06:01:26.383Z,9.35
2023-04-09T06:02:28.865Z,8.60
2023-04-09T06:03:30.834Z,10.35
2023-04-09T06:04:32.670Z,9.43
2023-04-09T06:05:34.390Z,9.30
2023-04-09T06:06:38.845Z,9.93
2023-04-09T06:07:40.563Z,10.33
2023-04-09T06:08:42.369Z,9.00
2023-04-09T06:09:44.062Z,8.95
2023-04-09T06:10:45.865Z,10.35
2023-04-09T06:11:47.594Z,9.15
2023-04-09T06:12:49.295Z,8.52
2023-04-09T06:13:51.683Z,8.15
2023-04-09T06:14:53.643Z,7.65
2023-04-09T06:15:55.362Z,9.93
2023-04-09T06:16:59.125Z,7.90
2023-04-09T06:18:00.813Z,7.37
2023-04-09T06:19:02.552Z,8.05
2023-04-09T06:20:04.968Z,8.93
2023-04-09T06:21:08.200Z,5.97
2023-04-09T06:22:10.506Z,7.93
2023-04-09T06:23:12.143Z,8.05
2023-04-09T06:24:13.783Z,7.95
2023-04-09T06:25:15.450Z,8.55
2023-04-09T06:26:17.142Z,9.30
2023-04-09T06:27:18.839Z,9.05
2023-04-09T06:28:20.474Z,9.40
2023-04-09T06:29:24.232Z,8.52
2023-04-09T06:30:26.144Z,8.45
2023-04-09T06:31:27.869Z,8.73
2023-04-09T06:32:29.789Z,9.73
2023-04-09T06:33:32.417Z,9.63
2023-04-09T06:34:34.156Z,9.27
2023-04-09T06:35:35.892Z,8.40
2023-04-09T06:36:37.590Z,8.32
2023-04-09T06:37:39.323Z,7.50
2023-04-09T06:38:41.085Z,8.37
2023-04-09T06:39:50.609Z,7.70
2023-04-09T06:40:59.734Z,9.05
2023-04-09T06:42:01.421Z,8.30
2023-04-09T06:43:03.060Z,8.35
2023-04-09T06:44:04.702Z,8.57
2023-04-09T06:45:07.399Z,8.32
2023-04-09T06:46:09.140Z,9.10
2023-04-09T06:47:11.001Z,8.50
2023-04-09T06:48:12.655Z,8.77
2023-04-09T06:49:14.454Z,8.90
2023-04-09T06:50:16.207Z,9.30
2023-04-09T06:51:17.846Z,9.75
2023-04-09T06:52:19.637Z,9.55
2023-04-09T06:53:21.403Z,9.45
2023-04-09T06:54:23.070Z,8.98
2023-04-09T06:55:24.791Z,10.80
2023-04-09T06:56:26.485Z,8.40
2023-04-09T06:57:28.208Z,9.38
2023-04-09T06:58:29.906Z,9.75
2023-04-09T06:59:31.587Z,10.93
2023-04-09T07:00:33.316Z,9.77
2023-04-09T07:01:35.081Z,8.45
2023-04-09T07:02:37.275Z,12.68
2023-04-09T07:03:39.258Z,13.73
2023-04-09T07:04:41.082Z,9.40
2023-04-09T07:05:42.812Z,9.15
2023-04-09T07:06:44.465Z,9.40
2023-04-09T07:07:46.118Z,9.35
2023-04-09T07:08:47.828Z,11.07
2023-04-09T07:09:49.480Z,9.37
2023-04-09T07:10:51.190Z,9.38
2023-04-09T07:11:52.993Z,7.40
2023-04-09T07:12:54.649Z,8.85
2023-04-09T07:13:56.315Z,10.82
2023-04-09T07:15:01.528Z,8.93
2023-04-09T07:16:03.244Z,10.30
2023-04-09T07:17:04.998Z,8.38
2023-04-09T07:18:07.817Z,7.85
2023-04-09T07:19:09.523Z,8.40
2023-04-09T07:20:11.771Z,8.93
2023-04-09T07:21:13.406Z,9.13
2023-04-09T07:22:15.067Z,7.30
2023-04-09T07:23:16.720Z,6.53
2023-04-09T07:24:18.412Z,7.40
2023-04-09T07:25:20.141Z,7.88
2023-04-09T07:26:21.929Z,7.82
2023-04-09T07:27:27.994Z,8.23
2023-04-09T07:28:29.706Z,7.68
2023-04-09T07:29:31.376Z,9.18
2023-04-09T07:30:33.127Z,8.03
2023-04-09T07:31:36.029Z,7.40
2023-04-09T07:32:38.229Z,7.72
2023-04-09T07:33:40.732Z,8.27
2023-04-09T07:34:43.903Z,9.45
2023-04-09T07:35:45.694Z,9.80
2023-04-09T07:36:47.442Z,9.65
2023-04-09T07:37:49.114Z,7.53
2023-04-09T07:38:51.140Z,6.55
2023-04-09T07:39:53.182Z,8.75
2023-04-09T07:40:54.891Z,8.57
2023-04-09T07:41:56.792Z,8.32
2023-04-09T07:42:58.423Z,7.97
2023-04-09T07:44:00.049Z,7.10
2023-04-09T07:45:01.772Z,7.93
2023-04-09T07:46:03.497Z,8.38
2023-04-09T07:47:06.891Z,8.10
2023-04-09T07:48:08.641Z,7.97
2023-04-09T07:49:10.361Z,8.77
2023-04-09T07:50:12.445Z,8.25
2023-04-09T07:51:14.098Z,8.17
2023-04-09T07:52:15.846Z,8.88
2023-04-09T07:53:17.500Z,8.75
2023-04-09T07:54:19.187Z,8.98
2023-04-09T07:55:20.880Z,8.27
2023-04-09T07:56:22.600Z,7.25
2023-04-09T07:57:24.359Z,7.10
2023-04-09T07:58:26.067Z,6.10
2023-04-09T07:59:27.862Z,7.28
2023-04-09T08:00:29.669Z,7.22
2023-04-09T08:01:31.411Z,7.93
2023-04-09T08:02:33.236Z,8.35
2023-04-09T08:03:35.198Z,9.52
2023-04-09T08:04:37.256Z,6.88
2023-04-09T08:05:39.010Z,5.93
2023-04-09T08:06:40.698Z,6.28
2023-04-09T08:07:42.409Z,6.00
2023-04-09T08:08:44.757Z,6.68
2023-04-09T08:09:46.414Z,7.85
2023-04-09T08:10:48.126Z,5.40
2023-04-09T08:11:50.135Z,6.07
2023-04-09T08:12:51.867Z,8.75
2023-04-09T08:13:54.062Z,7.10
2023-04-09T08:14:55.748Z,7.28
2023-04-09T08:16:01.338Z,7.70
2023-04-09T08:17:03.174Z,7.47
2023-04-09T08:18:04.939Z,7.75
2023-04-09T08:19:06.748Z,7.97
2023-04-09T08:20:09.105Z,7.13
2023-04-09T08:21:10.937Z,7.93
2023-04-09T08:22:12.577Z,8.03
2023-04-09T08:23:14.219Z,9.10
2023-04-09T08:24:16.349Z,7.47
2023-04-09T08:25:18.086Z,8.07
2023-04-09T08:26:19.790Z,6.47
2023-04-09T08:27:21.929Z,6.03
2023-04-09T08:28:23.903Z,6.80
2023-04-09T08:29:26.835Z,9.65
2023-04-09T08:30:28.533Z,8.48
2023-04-09T08:31:30.247Z,8.32
2023-04-09T08:32:31.990Z,8.17
2023-04-09T08:33:33.717Z,6.85
2023-04-09T08:34:35.457Z,5.80
2023-04-09T08:35:37.113Z,8.02
2023-04-09T08:36:38.793Z,8.68
2023-04-09T08:37:40.653Z,9.23
2023-04-09T08:38:42.405Z,6.82
2023-04-09T08:39:44.193Z,7.38
2023-04-09T08:40:45.903Z,7.80
2023-04-09T08:41:47.772Z,6.82
2023-04-09T08:42:56.617Z,6.80
2023-04-09T08:43:59.924Z,6.65
2023-04-09T08:45:05.094Z,6.10
2023-04-09T08:46:06.944Z,7.40
2023-04-09T08:47:09.226Z,8.43
2023-04-09T08:48:13.952Z,7.60
2023-04-09T08:49:16.079Z,7.53
2023-04-09T08:50:18.060Z,8.38
2023-04-09T08:51:21.641Z,7.28
2023-04-09T08:52:34.994Z,7.93
2023-04-09T08:53:37.663Z,6.07
2023-04-09T08:54:39.515Z,7.47
2023-04-09T08:55:48.231Z,7.15
2023-04-09T08:56:49.865Z,7.90
2023-04-09T08:57:51.493Z,8.10
2023-04-09T08:58:54.151Z,7.75
2023-04-09T08:59:55.982Z,8.02
2023-04-09T09:00:57.688Z,7.43
2023-04-09T09:02:12.495Z,8.93
2023-04-09T09:03:14.659Z,7.47
2023-04-09T09:04:16.530Z,9.30
2023-04-09T09:05:36.137Z,6.18
2023-04-09T09:06:41.880Z,7.47
2023-04-09T09:07:53.761Z,6.82
2023-04-09T09:09:06.152Z,7.47
2023-04-09T09:10:08.762Z,6.82
2023-04-09T09:11:10.501Z,7.25
2023-04-09T09:12:12.271Z,8.38
2023-04-09T09:13:23.193Z,7.32
2023-04-09T09:14:24.904Z,8.10
2023-04-09T09:15:29.138Z,8.20
2023-04-09T09:16:31.014Z,10.48
2023-04-09T09:17:33.027Z,11.65
2023-04-09T09:18:43.050Z,13.02
2023-04-09T09:19:44.882Z,10.88
2023-04-09T09:20:46.635Z,13.35
2023-04-09T09:21:56.500Z,13.50
2023-04-09T09:22:58.192Z,8.13
2023-04-09T09:23:59.872Z,8.45
2023-04-09T09:25:01.580Z,7.75
2023-04-09T09:26:12.473Z,7.73
2023-04-09T09:27:31.710Z,8.73
2023-04-09T09:28:35.164Z,11.00
2023-04-09T09:29:41.423Z,9.90
2023-04-09T09:30:43.223Z,7.10
2023-04-09T09:31:50.134Z,7.95
2023-04-09T09:33:13.012Z,7.50
2023-04-09T09:34:15.528Z,7.63
2023-04-09T09:35:17.292Z,7.65
2023-04-09T09:36:35.272Z,8.02
2023-04-09T09:37:36.978Z,6.83
2023-04-09T09:38:55.978Z,7.88
2023-04-09T09:40:01.482Z,6.78
2023-04-09T09:41:17.214Z,10.70
2023-04-09T09:42:18.927Z,10.95
2023-04-09T09:43:20.730Z,12.07
2023-04-09T09:44:33.044Z,8.88
2023-04-09T09:45:36.665Z,8.65
2023-04-09T09:46:40.043Z,7.82
2023-04-09T09:47:41.986Z,8.00
2023-04-09T09:48:45.080Z,7.60
2023-04-09T09:49:49.067Z,8.32
2023-04-09T09:50:51.981Z,8.27
2023-04-09T09:51:56.988Z,8.88
2023-04-09T09:53:03.552Z,9.45
2023-04-09T09:54:08.030Z,9.68
2023-04-09T09:55:13.381Z,8.90
2023-04-09T09:56:18.914Z,7.82
2023-04-09T09:57:20.941Z,7.63
2023-04-09T09:58:27.833Z,7.25
2023-04-09T09:59:34.592Z,8.37
2023-04-09T10:00:37.551Z,8.30
2023-04-09T10:01:40.508Z,9.10
2023-04-09T10:02:53.943Z,9.98
2023-04-09T10:03:59.987Z,7.30
2023-04-09T10:05:01.757Z,7.10
2023-04-09T10:06:03.558Z,7.20
2023-04-09T10:07:06.918Z,7.15
2023-04-09T10:08:10.597Z,8.60
2023-04-09T10:09:13.368Z,8.60
2023-04-09T10:10:15.549Z,8.57
2023-04-09T10:11:18.831Z,9.57
2023-04-09T10:12:23.016Z,10.35
2023-04-09T10:13:44.339Z,7.07
2023-04-09T10:14:46.354Z,5.25
2023-04-09T10:15:48.917Z,6.03
2023-04-09T10:16:51.139Z,5.70
2023-04-09T10:17:52.861Z,6.85
2023-04-09T10:18:59.742Z,7.15
2023-04-09T10:20:24.171Z,6.85
2023-04-09T10:21:31.534Z,6.83
2023-04-09T10:22:34.711Z,5.00
2023-04-09T10:23:44.674Z,5.63
2023-04-09T10:24:46.893Z,6.30
2023-04-09T10:25:48.642Z,6.03
2023-04-09T10:26:54.659Z,4.75
2023-04-09T10:28:02.908Z,5.85
2023-04-09T10:29:06.679Z,5.90
2023-04-09T10:30:08.859Z,6.00
2023-04-09T10:31:11.026Z,5.82
2023-04-09T10:32:17.680Z,6.87
2023-04-09T10:33:24.149Z,6.75
2023-04-09T10:34:27.640Z,6.68
2023-04-09T10:35:29.382Z,5.43
2023-04-09T10:36:31.047Z,6.20
2023-04-09T10:37:36.212Z,5.60
2023-04-09T10:38:44.959Z,4.68
2023-04-09T10:39:48.181Z,5.68
2023-04-09T10:40:51.107Z,6.53
2023-04-09T10:41:54.850Z,6.13
2023-04-09T10:42:58.164Z,5.17
2023-04-09T10:43:59.804Z,6.13
2023-04-09T10:45:12.908Z,6.30
2023-04-09T10:46:30.979Z,6.18
2023-04-09T10:47:35.212Z,5.40
2023-04-09T10:48:36.876Z,5.85
2023-04-09T10:49:42.488Z,5.75
2023-04-09T10:50:44.787Z,5.38
2023-04-09T10:51:52.234Z,5.60
2023-04-09T10:52:56.354Z,5.53
2023-04-09T10:53:58.058Z,5.73
2023-04-09T10:54:59.770Z,4.90
2023-04-09T10:56:01.483Z,5.45
2023-04-09T10:57:08.967Z,5.93
2023-04-09T10:58:13.544Z,6.88
2023-04-09T10:59:15.554Z,5.50
2023-04-09T11:00:17.254Z,5.43
2023-04-09T11:01:22.349Z,5.95
2023-04-09T11:02:39.911Z,7.57
2023-04-09T11:03:45.186Z,5.95
2023-04-09T11:04:55.246Z,4.93
2023-04-09T11:06:04.883Z,4.85
2023-04-09T11:07:08.375Z,5.65
2023-04-09T11:08:14.515Z,5.85
2023-04-09T11:09:16.227Z,4.68
2023-04-09T11:10:18.757Z,6.05
2023-04-09T11:11:26.602Z,5.60
2023-04-09T11:12:28.227Z,7.43
2023-04-09T11:13:31.522Z,6.07
2023-04-09T11:14:36.046Z,6.85
2023-04-09T11:15:39.286Z,5.83
2023-04-09T11:16:41.029Z,6.30
2023-04-09T11:17:43.407Z,5.15
2023-04-09T11:18:45.242Z,4.72
2023-04-09T11:19:47.366Z,3.95
2023-04-09T11:20:49.418Z,4.03
2023-04-09T11:21:51.168Z,4.70
2023-04-09T11:22:54.970Z,4.05
2023-04-09T11:23:56.711Z,4.47
2023-04-09T11:24:58.399Z,4.30
2023-04-09T11:26:00.079Z,4.90
2023-04-09T11:27:01.830Z,4.40
2023-04-09T11:28:04.371Z,4.57
2023-04-09T11:29:07.104Z,4.50
2023-04-09T11:30:09.256Z,4.85
2023-04-09T11:31:10.970Z,4.70
2023-04-09T11:32:13.169Z,4.47
2023-04-09T11:33:16.017Z,4.05
2023-04-09T11:34:19.333Z,4.93
2023-04-09T11:35:22.458Z,4.75
2023-04-09T11:36:24.143Z,4.63
2023-04-09T11:37:25.932Z,4.13
2023-04-09T11:38:27.657Z,4.10
2023-04-09T11:39:29.379Z,4.20
2023-04-09T11:40:31.394Z,3.80
2023-04-09T11:41:37.692Z,3.67
2023-04-09T11:42:39.438Z,3.85
2023-04-09T11:43:41.186Z,4.30
2023-04-09T11:44:45.253Z,4.30
2023-04-09T11:45:47.086Z,3.72
2023-04-09T11:46:49.442Z,3.70
2023-04-09T11:47:51.816Z,3.80
2023-04-09T11:48:54.225Z,3.13
2023-04-09T11:49:56.159Z,4.05
2023-04-09T11:50:58.110Z,3.70
2023-04-09T11:51:59.986Z,3.83
2023-04-09T11:53:01.669Z,3.75
2023-04-09T11:54:03.770Z,3.60
2023-04-09T11:55:06.336Z,4.32
2023-04-09T11:56:08.043Z,4.10
2023-04-09T11:57:09.849Z,4.53
2023-04-09T11:58:11.534Z,3.88
2023-04-09T11:59:15.221Z,4.07
2023-04-09T12:00:17.897Z,3.13
2023-04-09T12:01:22.391Z,3.70
2023-04-09T12:02:24.155Z,4.05
2023-04-09T12:03:33.007Z,3.97
2023-04-09T12:04:35.247Z,3.90
2023-04-09T12:05:38.995Z,4.13
2023-04-09T12:06:42.413Z,4.07
2023-04-09T12:07:55.452Z,3.73
2023-04-09T12:08:59.406Z,4.03
2023-04-09T12:10:05.943Z,3.85
2023-04-09T12:11:08.953Z,3.90
2023-04-09T12:12:10.640Z,3.60
2023-04-09T12:13:12.360Z,3.72
2023-04-09T12:14:16.174Z,4.03
2023-04-09T12:15:22.811Z,3.88
2023-04-09T12:16:24.536Z,3.55
2023-04-09T12:17:26.630Z,3.13
2023-04-09T12:18:28.650Z,3.93
2023-04-09T12:19:31.080Z,5.18
2023-04-09T12:20:47.666Z,3.70
2023-04-09T12:21:50.763Z,3.58
2023-04-09T12:22:52.485Z,3.65
2023-04-09T12:23:54.290Z,2.97
2023-04-09T12:24:56.023Z,3.65
2023-04-09T12:25:58.213Z,4.20
2023-04-09T12:26:59.885Z,3.67
2023-04-09T12:28:01.812Z,3.97
2023-04-09T12:29:03.556Z,4.60
2023-04-09T12:30:06.076Z,3.88
2023-04-09T12:31:10.679Z,4.03
2023-04-09T12:32:12.919Z,4.55
2023-04-09T12:33:14.678Z,4.63
2023-04-09T12:34:16.489Z,7.28
2023-04-09T12:35:18.325Z,3.90
2023-04-09T12:36:20.056Z,4.35
2023-04-09T12:37:21.866Z,4.07
2023-04-09T12:38:23.557Z,3.88
2023-04-09T12:39:25.316Z,5.10
2023-04-09T12:40:27.493Z,5.57
2023-04-09T12:41:29.209Z,6.80
2023-04-09T12:42:31.049Z,6.28
2023-04-09T12:43:32.702Z,6.47
2023-04-09T12:44:34.511Z,6.78
2023-04-09T12:45:36.256Z,6.32
2023-04-09T12:46:38.338Z,6.90
2023-04-09T12:47:40.671Z,6.82
2023-04-09T12:48:42.780Z,6.25
2023-04-09T12:49:45.072Z,6.70
2023-04-09T12:50:46.862Z,6.53
2023-04-09T12:51:48.581Z,6.75
2023-04-09T12:52:50.675Z,6.95
2023-04-09T12:53:52.640Z,7.13
2023-04-09T12:54:54.714Z,6.82
2023-04-09T12:55:56.687Z,6.70
2023-04-09T12:56:58.328Z,7.07
2023-04-09T12:57:59.969Z,7.35
2023-04-09T12:59:01.686Z,6.45
2023-04-09T13:00:03.540Z,6.60
2023-04-09T13:01:05.877Z,6.70
2023-04-09T13:02:08.099Z,6.47
2023-04-09T13:03:10.082Z,7.00
2023-04-09T13:04:12.043Z,6.63
2023-04-09T13:05:13.971Z,6.80
2023-04-09T13:06:15.604Z,7.45
2023-04-09T13:07:17.725Z,6.68
2023-04-09T13:08:19.419Z,7.15
2023-04-09T13:09:21.199Z,7.55
2023-04-09T13:10:22.972Z,7.17
2023-04-09T13:11:24.723Z,6.80
2023-04-09T13:12:26.497Z,6.60
2023-04-09T13:13:28.332Z,6.65
2023-04-09T13:14:30.069Z,6.47
2023-04-09T13:15:31.753Z,5.75
2023-04-09T13:16:33.662Z,6.00
2023-04-09T13:17:35.506Z,6.53
2023-04-09T13:18:37.623Z,7.13
2023-04-09T13:19:40.856Z,6.82
2023-04-09T13:20:44.232Z,7.00
2023-04-09T13:21:46.144Z,6.60
2023-04-09T13:22:47.860Z,7.13
2023-04-09T13:23:49.606Z,6.80
2023-04-09T13:24:51.229Z,6.78
2023-04-09T13:25:52.911Z,6.47
2023-04-09T13:26:54.664Z,7.18
2023-04-09T13:27:56.437Z,6.30
2023-04-09T13:28:58.218Z,6.47
2023-04-09T13:29:59.930Z,5.88
2023-04-09T13:31:03.003Z,6.10
2023-04-09T13:32:04.914Z,5.95
2023-04-09T13:33:06.701Z,6.40
2023-04-09T13:34:08.418Z,5.97
2023-04-09T13:35:10.357Z,6.65
2023-04-09T13:36:12.022Z,6.63
2023-04-09T13:37:13.705Z,6.45
2023-04-09T13:38:15.413Z,5.63
2023-04-09T13:39:17.126Z,5.80
2023-04-09T13:40:18.782Z,6.00
2023-04-09T13:41:20.626Z,6.23
2023-04-09T13:42:22.299Z,5.85
2023-04-09T13:43:24.099Z,5.22
2023-04-09T13:44:25.843Z,5.68
2023-04-09T13:45:27.480Z,6.85
2023-04-09T13:46:29.336Z,6.18
2023-04-09T13:47:31.187Z,6.18
2023-04-09T13:48:32.887Z,6.00
2023-04-09T13:49:34.535Z,5.35
2023-04-09T13:50:36.220Z,5.20
2023-04-09T13:51:37.960Z,5.80
2023-04-09T13:52:39.635Z,5.88
2023-04-09T13:53:41.364Z,6.05
2023-04-09T13:54:43.166Z,5.88
2023-04-09T13:55:44.853Z,6.10
2023-04-09T13:56:46.588Z,6.30